Briefing drone pour Trelissac

Rechercher une autre localisation

Conditions de vol :


Nous sommes le : Mercredi 17 avril 2024
Il est 06:49 UTC (08:49 LT)

Lever de soleil : 04:40 UTC (06:40 LT)
Coucher de soleil : 19:11 UTC (21:11 LT)

Météo

L'essentiel des conditions de vol

VIGILANCE MÉTÉO FRANCE - Dordogne (24)
Pas de vigilances particulieres
CARTE TEMSI
CARTES DES FRONTS
METAR de LFBX
LFBX 170630Z AUTO VRB03KT CAVOK 08/07 Q1019

Date d'émission: 17/04/2024
Heure d'émission: 06:30 UTC
Vent: Variable 3 KT (6 km/h)
Visibilité horizontale: > 10 km
Plafond : Plafond et visibilité OK (CAVOK)
Température: 8 °C
Point de rosée: 7 °C
Humidité: 93%
Pression (QNH): 1019 hPa
Prévision 24h pour Perigueux (3 km)
Vent : 310° pour 2 KT (7 km/h)
Temperature Maxi: 3 °C
Temperature Min: 3 °C
Humidité : 97%
Condition : Partiellement nuageux


WEBCAM POUR TRELISSAC

Réglementation

Voler en sécurité

CARTES AERONAUTIQUE 1/500.000
CARTE AZBA (Reseau basse altitude)
CARTES VAC (LFBX)
SUP AIP




Chargement des AIP...
NOTAM (TRELISSAC + Terrain à proximité / FIR )




Chargement des NOTAMS...
CONTACT PREFECTURE 24
Dordogne (24) : [email protected]


Avertissement : Les données mises à disposition sont indicatives. Oxygène Drone ne pourra être tenu responsable de dégâts causés aux biens et aux personnes.